Mackinaw City, MI

1:44 AM EDT on April 26, 2015 (GMT -0400)
MesoWest | | Change Station
CLOSE
Current Station
Personal Weather Station
Location: Mackinaw City, MI
Elevation: 646 ft
Nearby Weather Stations

Elev 646 ft 45.76 °N, 84.73 °W | Updated 29 minutes ago

Partly Cloudy
Partly Cloudy
33 °F
Feels Like 33 °F
N
0
Wind Variable Wind from North
Gusts 2.0 mph

Today
High -- | Low -- °F
--% Chance of Precip.
Yesterday
High -- | Low -- °F
Precip. -- in
6:34 AM 8:39 PM
First Quarter, 52% visible
Pressure 29.95 in
Visibility 10.0 miles
Clouds Clear
Windchill 33 °F
Dew Point 23 °F
Humidity 67%
Rainfall in
Snow Depth Not available.
UV 0 out of 12
Pollen 8.80 out of 12
Air Quality Not available.
Flu Activity Regional
METAR KMCD 260536Z AUTO 36007KT 10SM CLR 01/M04 A2995 RMK AO2 T00111036

More Conditions Fewer Conditions

Pressure 29.95 in
Visibility 10.0 miles
Clouds Clear
Windchill 33 °F
Dew Point 23 °F
Humidity 67%
Rainfall in
Snow Depth Not available.
UV 0 out of 12
Pollen 8.80 out of 12
Air Quality Not available.
Flu Activity Regional
METAR KMCD 260536Z AUTO 36007KT 10SM CLR 01/M04 A2995 RMK AO2 T00111036

More Conditions Fewer Conditions

The full scope of the disaster following a powerful 7.8-magnitude earthquake in Nepal may not come into view for days, but global charities are already sending emergency aid. Click to see how you can help.
Nowcast | as of 1:00 am EDT on April 26, 2015

At 2 am...mostly clear. Temperature 36. North winds 6 mph. At 4 am...partly cloudy. Temperature 34. Northeast winds 5 mph. At 6 am...partly cloudy. Temperature 32. Light winds. At 8 am...partly cloudy. Temperature 35. Light winds.

×

10-Day Weather Forecast

Almanac

Astronomy

Apr. 26, 2015 Rise Set
Actual Time
Civil Twilight
Nautical Twilight
Astronomical Twilight
Moon
Length of Visible Light
Length of Day
Tomorrow will be .
, % of the Moon is Illuminated

Today's Extremes

State Highs State Lows

Community

WunderPhotos

Upload Photos

1,816,946 photos uploaded!

WunderBlogs® & News

Nearby

Air Quality

  Air Quality AQ Index Pollutant
Not available.

Snow Depth

Station Depth Elevation

Earthquake Activity

City Distance Mag. Time & Date
Minimum magnitude displayed is 2.5.

Coastal Water Temperatures

Place Temperature

Stations

Nearby Weather Stations

Station Location Temp. Windchill Dew Point Humidity Wind Precip. Elev Updated Type